Time;durP1;ratioP1;P1;durP2;ratioP2;P2;SDS_P1;SDS_P2;PMS_P1;PMS_P2;Temp;Humidity;BMP_temperature;BMP_pressure;BME280_temperature;BME280_humidity;BME280_pressure;Samples;Min_cycle;Max_cycle;Signal;HPM_P1;HPM_P2
2021/03/15 00:00:32;;;;;;;4.63;2.20;;;;;;;;;;5074362;28;20398;-86
2021/03/15 00:02:58;;;;;;;3.92;2.20;;;;;;;;;;5062508;28;20421;-85
2021/03/15 00:05:24;;;;;;;4.50;2.30;;;;;;;;;;5101045;28;20424;-87
2021/03/15 00:07:50;;;;;;;5.50;2.53;;;;;;;;;;5076570;28;20405;-86
2021/03/15 00:10:16;;;;;;;5.72;3.15;;;;;;;;;;5080962;28;20415;-86
2021/03/15 00:12:42;;;;;;;4.05;2.42;;;;;;;;;;5082339;28;20522;-86
2021/03/15 00:15:09;;;;;;;4.95;2.72;;;;;;;;;;5079897;28;20832;-86
2021/03/15 00:17:35;;;;;;;7.30;2.30;;;;;;;;;;5075762;28;20453;-85
2021/03/15 00:20:01;;;;;;;6.82;2.67;;;;;;;;;;5064803;28;20490;-85
2021/03/15 00:22:27;;;;;;;5.65;2.60;;;;;;;;;;5055083;28;20405;-86
2021/03/15 00:24:53;;;;;;;8.38;2.75;;;;;;;;;;5076866;28;20410;-86
2021/03/15 00:27:19;;;;;;;5.15;2.63;;;;;;;;;;5062518;28;20398;-86
2021/03/15 00:29:45;;;;;;;5.40;2.73;;;;;;;;;;5047460;28;20417;-86
2021/03/15 00:32:11;;;;;;;7.50;2.72;;;;;;;;;;5080937;28;20468;-85
2021/03/15 00:34:37;;;;;;;4.95;2.85;;;;;;;;;;5059919;28;20399;-85
2021/03/15 00:37:03;;;;;;;5.47;3.47;;;;;;;;;;5058827;28;20509;-85
2021/03/15 00:39:29;;;;;;;7.90;3.23;;;;;;;;;;5089527;28;20505;-85
2021/03/15 00:41:55;;;;;;;7.93;2.58;;;;;;;;;;5060712;28;20433;-86
2021/03/15 00:44:21;;;;;;;9.07;3.00;;;;;;;;;;5057935;28;20410;-85
2021/03/15 00:46:47;;;;;;;8.55;3.45;;;;;;;;;;5078902;28;20414;-86
2021/03/15 00:49:13;;;;;;;4.55;2.70;;;;;;;;;;5056111;28;20403;-86
2021/03/15 00:51:39;;;;;;;10.98;3.90;;;;;;;;;;5058953;28;20528;-86
2021/03/15 00:54:05;;;;;;;7.07;2.80;;;;;;;;;;5059368;28;20486;-86
2021/03/15 00:56:31;;;;;;;7.38;3.20;;;;;;;;;;5095531;28;20834;-86
2021/03/15 00:58:56;;;;;;;7.38;3.35;;;;;;;;;;5074620;28;20493;-86
2021/03/15 01:01:23;;;;;;;7.95;3.40;;;;;;;;;;5058212;28;20413;-86
2021/03/15 01:03:49;;;;;;;12.57;3.40;;;;;;;;;;5074025;28;20410;-86
2021/03/15 01:06:15;;;;;;;7.28;3.30;;;;;;;;;;5076734;28;20425;-86
2021/03/15 01:08:41;;;;;;;11.25;3.47;;;;;;;;;;5076521;28;20751;-86
2021/03/15 01:11:07;;;;;;;7.05;3.08;;;;;;;;;;5072916;28;20419;-85
2021/03/15 01:13:33;;;;;;;6.55;3.35;;;;;;;;;;5075178;28;20408;-86
2021/03/15 01:15:59;;;;;;;6.73;3.30;;;;;;;;;;5074301;28;20821;-85
2021/03/15 01:18:25;;;;;;;8.20;3.80;;;;;;;;;;5065921;28;20915;-86
2021/03/15 01:20:51;;;;;;;7.82;3.55;;;;;;;;;;5075018;28;20896;-85
2021/03/15 01:23:17;;;;;;;11.43;4.03;;;;;;;;;;5090363;28;20427;-86
2021/03/15 01:25:43;;;;;;;6.15;3.22;;;;;;;;;;5073211;28;20431;-85
2021/03/15 01:28:09;;;;;;;7.85;2.90;;;;;;;;;;5076278;28;20940;-85
2021/03/15 01:30:36;;;;;;;9.20;3.92;;;;;;;;;;5074365;28;20892;-86
2021/03/15 01:33:02;;;;;;;9.20;3.83;;;;;;;;;;5089198;28;20409;-86
2021/03/15 01:35:28;;;;;;;7.25;3.50;;;;;;;;;;5059211;28;20896;-86
2021/03/15 01:37:54;;;;;;;8.83;4.03;;;;;;;;;;5089196;28;20754;-85
2021/03/15 01:40:20;;;;;;;8.23;3.85;;;;;;;;;;5056713;28;20864;-86
2021/03/15 01:42:46;;;;;;;10.10;4.03;;;;;;;;;;5089747;28;20410;-85
2021/03/15 01:45:12;;;;;;;8.27;3.50;;;;;;;;;;5088957;28;20425;-86
2021/03/15 01:47:39;;;;;;;8.10;3.78;;;;;;;;;;5073272;28;20420;-86
2021/03/15 01:50:05;;;;;;;12.40;4.57;;;;;;;;;;5090492;28;20498;-86
2021/03/15 01:52:31;;;;;;;6.13;3.25;;;;;;;;;;5090020;28;20419;-85
2021/03/15 01:54:57;;;;;;;8.32;3.45;;;;;;;;;;5075031;28;20399;-85
2021/03/15 01:57:23;;;;;;;7.95;3.72;;;;;;;;;;5043011;28;20416;-86
2021/03/15 01:59:49;;;;;;;8.10;3.30;;;;;;;;;;5074353;28;20405;-85
2021/03/15 02:02:15;;;;;;;8.80;3.55;;;;;;;;;;5092746;28;20415;-85
2021/03/15 02:04:41;;;;;;;7.85;3.35;;;;;;;;;;5089492;28;20436;-85
2021/03/15 02:07:07;;;;;;;8.23;3.07;;;;;;;;;;5085470;28;20424;-85
2021/03/15 02:09:33;;;;;;;5.85;3.42;;;;;;;;;;5043896;28;20405;-86
2021/03/15 02:11:59;;;;;;;6.82;2.90;;;;;;;;;;5071487;28;20418;-86
2021/03/15 02:14:37;;;;;;;10.23;3.45;;;;;;;;;;5058181;28;20411;-85
2021/03/15 02:17:04;;;;;;;7.20;3.40;;;;;;;;;;5052186;28;20759;-86
2021/03/15 02:19:49;;;;;;;5.60;3.17;;;;;;;;;;5090694;28;20399;-86
2021/03/15 02:22:34;;;;;;;7.47;3.00;;;;;;;;;;5064193;28;20419;-86
2021/03/15 02:25:03;;;;;;;6.18;3.47;;;;;;;;;;5085317;28;20904;-86
2021/03/15 02:27:29;;;;;;;10.45;3.47;;;;;;;;;;5092763;28;20777;-86
2021/03/15 02:29:55;;;;;;;7.45;2.97;;;;;;;;;;5092917;28;20790;-86
2021/03/15 02:32:23;;;;;;;7.38;2.80;;;;;;;;;;5093888;27;20429;-86
2021/03/15 02:34:52;;;;;;;8.68;2.70;;;;;;;;;;5061683;28;20410;-85
2021/03/15 02:37:19;;;;;;;7.70;2.65;;;;;;;;;;5069283;28;20407;-86
2021/03/15 02:39:47;;;;;;;10.80;2.50;;;;;;;;;;5064861;28;20527;-86
2021/03/15 02:42:14;;;;;;;11.35;2.75;;;;;;;;;;5074064;28;20400;-85
2021/03/15 02:44:40;;;;;;;7.13;2.30;;;;;;;;;;5070294;28;20426;-86
2021/03/15 02:47:09;;;;;;;6.65;2.55;;;;;;;;;;5088925;28;20407;-86
2021/03/15 02:49:35;;;;;;;4.32;2.35;;;;;;;;;;5068840;28;20425;-86
2021/03/15 02:52:01;;;;;;;7.45;2.47;;;;;;;;;;5085667;28;20394;-86
2021/03/15 02:54:27;;;;;;;4.25;2.10;;;;;;;;;;5057111;28;20397;-86
2021/03/15 02:56:54;;;;;;;7.83;2.63;;;;;;;;;;5078445;28;20427;-86
2021/03/15 02:59:20;;;;;;;9.68;3.33;;;;;;;;;;5071865;28;20405;-86
2021/03/15 03:01:46;;;;;;;4.20;2.10;;;;;;;;;;5085154;28;20483;-86
2021/03/15 03:04:12;;;;;;;9.45;2.40;;;;;;;;;;5079449;28;20837;-86
2021/03/15 03:06:39;;;;;;;8.10;2.65;;;;;;;;;;5078388;28;20490;-86
2021/03/15 03:09:05;;;;;;;5.65;2.10;;;;;;;;;;5064705;28;20437;-85
2021/03/15 03:11:31;;;;;;;5.35;2.00;;;;;;;;;;5098294;28;20448;-86
2021/03/15 03:13:59;;;;;;;3.83;2.33;;;;;;;;;;5070670;28;20386;-86
2021/03/15 03:16:27;;;;;;;4.25;1.80;;;;;;;;;;5070918;28;20399;-86
2021/03/15 03:18:53;;;;;;;6.78;3.08;;;;;;;;;;5067443;28;20514;-86
2021/03/15 03:21:22;;;;;;;5.87;2.73;;;;;;;;;;5086025;28;20394;-86
2021/03/15 03:23:48;;;;;;;6.35;2.40;;;;;;;;;;5059693;28;20421;-85
2021/03/15 03:26:14;;;;;;;4.72;2.47;;;;;;;;;;5072322;28;20426;-86
2021/03/15 03:28:40;;;;;;;6.43;2.33;;;;;;;;;;5072979;28;20422;-85
2021/03/15 03:31:06;;;;;;;5.93;2.25;;;;;;;;;;5072667;28;20485;-87
2021/03/15 03:33:32;;;;;;;4.97;2.33;;;;;;;;;;5061515;28;20398;-86
2021/03/15 03:35:58;;;;;;;5.20;2.28;;;;;;;;;;5065499;28;20870;-86
2021/03/15 03:38:24;;;;;;;6.35;2.45;;;;;;;;;;5078183;28;20397;-86
2021/03/15 03:40:50;;;;;;;5.53;2.10;;;;;;;;;;5069008;28;20742;-85
2021/03/15 03:43:16;;;;;;;4.38;1.90;;;;;;;;;;5060025;28;20412;-86
2021/03/15 03:45:45;;;;;;;6.63;2.38;;;;;;;;;;5095811;28;20825;-86
2021/03/15 03:48:11;;;;;;;3.85;2.60;;;;;;;;;;5059063;28;20402;-86
2021/03/15 03:50:36;;;;;;;3.05;2.00;;;;;;;;;;5094709;28;20399;-86
2021/03/15 03:53:05;;;;;;;6.13;2.63;;;;;;;;;;5073211;28;20891;-86
2021/03/15 03:55:51;;;;;;;4.38;2.35;;;;;;;;;;5087179;28;20766;-85
2021/03/15 03:58:18;;;;;;;5.28;2.33;;;;;;;;;;5061531;28;20390;-86
2021/03/15 04:00:44;;;;;;;5.00;2.15;;;;;;;;;;5081740;28;20806;-85
2021/03/15 04:03:14;;;;;;;5.93;2.40;;;;;;;;;;5068672;28;20424;-86
2021/03/15 04:05:40;;;;;;;4.65;2.40;;;;;;;;;;5072912;28;20417;-85
2021/03/15 04:08:07;;;;;;;7.05;2.53;;;;;;;;;;5064374;28;20390;-85
2021/03/15 04:10:33;;;;;;;6.82;3.08;;;;;;;;;;5064268;28;20413;-86
2021/03/15 04:13:04;;;;;;;4.15;2.20;;;;;;;;;;5088062;28;20449;-86
2021/03/15 04:15:30;;;;;;;6.15;2.22;;;;;;;;;;5062026;28;20403;-86
2021/03/15 04:17:56;;;;;;;6.97;3.28;;;;;;;;;;5068914;28;20438;-85
2021/03/15 04:20:32;;;;;;;5.78;2.45;;;;;;;;;;5072989;28;20390;-85
2021/03/15 04:22:58;;;;;;;7.53;2.75;;;;;;;;;;5068916;28;20417;-86
2021/03/15 04:25:25;;;;;;;5.55;2.85;;;;;;;;;;5066293;28;20901;-85
2021/03/15 04:27:51;;;;;;;7.45;2.83;;;;;;;;;;5072546;28;20752;-86
2021/03/15 04:30:18;;;;;;;5.85;3.00;;;;;;;;;;5065102;28;20389;-86
2021/03/15 04:32:43;;;;;;;8.48;3.40;;;;;;;;;;5065703;28;20873;-86
2021/03/15 04:35:10;;;;;;;7.20;3.00;;;;;;;;;;5071322;28;20423;-86
2021/03/15 04:37:36;;;;;;;5.80;3.00;;;;;;;;;;5078421;28;20479;-86
2021/03/15 04:40:02;;;;;;;6.78;3.03;;;;;;;;;;5071632;28;20532;-86
2021/03/15 04:42:28;;;;;;;5.35;2.83;;;;;;;;;;5082469;28;20395;-86
2021/03/15 04:44:54;;;;;;;7.77;3.77;;;;;;;;;;5085473;28;20969;-86
2021/03/15 04:47:29;;;;;;;6.75;2.95;;;;;;;;;;5101271;28;20394;-86
2021/03/15 04:49:55;;;;;;;5.38;2.90;;;;;;;;;;5069127;28;20820;-86
2021/03/15 04:52:21;;;;;;;7.65;3.40;;;;;;;;;;5073453;28;20435;-86
2021/03/15 04:54:46;;;;;;;6.30;3.00;;;;;;;;;;5091670;28;20468;-86
2021/03/15 04:57:14;;;;;;;7.63;2.88;;;;;;;;;;5083487;28;20430;-86
2021/03/15 04:59:40;;;;;;;6.68;2.90;;;;;;;;;;5057663;28;20410;-86
2021/03/15 05:02:06;;;;;;;7.90;2.80;;;;;;;;;;5064608;28;20748;-86
2021/03/15 05:04:31;;;;;;;7.57;2.97;;;;;;;;;;5074108;28;20422;-86
2021/03/15 05:06:57;;;;;;;8.13;3.35;;;;;;;;;;5084805;28;20406;-87
2021/03/15 05:09:23;;;;;;;5.53;2.92;;;;;;;;;;5058202;28;20402;-86
2021/03/15 05:11:49;;;;;;;8.20;3.15;;;;;;;;;;5066665;28;20418;-86
2021/03/15 05:14:15;;;;;;;4.40;2.42;;;;;;;;;;5080637;28;20400;-86
2021/03/15 05:16:42;;;;;;;5.13;2.78;;;;;;;;;;5070323;28;20491;-86
2021/03/15 05:19:28;;;;;;;5.85;2.92;;;;;;;;;;5078539;28;20753;-86
2021/03/15 05:21:54;;;;;;;4.50;2.70;;;;;;;;;;5053746;28;20392;-86
2021/03/15 05:24:20;;;;;;;5.63;2.45;;;;;;;;;;5070327;28;20414;-86
2021/03/15 05:26:46;;;;;;;6.30;2.33;;;;;;;;;;5065244;28;20489;-86
2021/03/15 05:29:13;;;;;;;5.33;2.57;;;;;;;;;;5074640;28;20390;-86
2021/03/15 05:31:40;;;;;;;7.40;2.97;;;;;;;;;;5091439;28;20498;-87
2021/03/15 05:34:06;;;;;;;5.85;2.45;;;;;;;;;;5077109;28;20401;-86
2021/03/15 05:36:32;;;;;;;4.45;2.70;;;;;;;;;;5068825;28;20459;-86
2021/03/15 05:38:58;;;;;;;4.32;2.10;;;;;;;;;;5073002;28;20402;-86
2021/03/15 05:41:30;;;;;;;3.88;2.28;;;;;;;;;;5089695;28;20405;-86
2021/03/15 05:43:59;;;;;;;4.63;2.77;;;;;;;;;;5093635;28;20485;-86
2021/03/15 05:46:35;;;;;;;3.80;2.40;;;;;;;;;;5072952;28;20482;-86
2021/03/15 05:49:01;;;;;;;3.22;2.22;;;;;;;;;;5068015;28;20399;-85
2021/03/15 05:51:39;;;;;;;11.40;6.03;;;;;;;;;;5092540;28;20781;-87
2021/03/15 05:54:11;;;;;;;5.95;3.55;;;;;;;;;;5100829;28;20386;-87
2021/03/15 05:56:43;;;;;;;6.47;2.65;;;;;;;;;;5064002;28;20417;-87
2021/03/15 05:59:16;;;;;;;12.60;6.38;;;;;;;;;;5100994;28;20439;-87
2021/03/15 06:01:45;;;;;;;28.67;12.50;;;;;;;;;;5086825;28;20394;-87
2021/03/15 06:04:30;;;;;;;17.48;7.20;;;;;;;;;;5076234;28;20389;-86
2021/03/15 06:06:56;;;;;;;8.43;4.43;;;;;;;;;;5092597;28;20407;-90
2021/03/15 06:09:22;;;;;;;6.07;3.80;;;;;;;;;;5085006;28;20415;-86
2021/03/15 06:11:51;;;;;;;5.10;3.22;;;;;;;;;;5072102;28;20413;-86
2021/03/15 06:14:17;;;;;;;3.70;2.85;;;;;;;;;;5089214;28;20392;-86
2021/03/15 06:16:43;;;;;;;4.28;2.88;;;;;;;;;;5081785;28;20978;-87
2021/03/15 06:19:09;;;;;;;4.20;2.72;;;;;;;;;;5074814;28;20397;-86
2021/03/15 06:21:35;;;;;;;6.50;3.92;;;;;;;;;;5083509;28;20463;-86
2021/03/15 06:24:01;;;;;;;3.90;2.63;;;;;;;;;;5051080;28;20433;-86
2021/03/15 06:26:30;;;;;;;8.80;5.23;;;;;;;;;;5097280;28;20821;-86
2021/03/15 06:29:00;;;;;;;7.30;3.53;;;;;;;;;;5105955;28;20398;-86
2021/03/15 06:31:26;;;;;;;6.90;2.92;;;;;;;;;;5075063;28;20873;-87
2021/03/15 06:33:52;;;;;;;14.17;5.73;;;;;;;;;;5082656;28;20477;-87
2021/03/15 06:36:36;;;;;;;8.80;4.05;;;;;;;;;;5082998;28;20398;-86
2021/03/15 06:39:05;;;;;;;8.60;3.73;;;;;;;;;;5081102;28;20400;-87
2021/03/15 06:41:31;;;;;;;11.35;4.55;;;;;;;;;;5082805;28;20737;-86
2021/03/15 06:43:57;;;;;;;6.03;3.25;;;;;;;;;;5054333;28;20403;-86
2021/03/15 06:46:23;;;;;;;6.70;3.28;;;;;;;;;;5057015;28;20426;-87
2021/03/15 06:48:49;;;;;;;9.48;3.50;;;;;;;;;;5082038;28;20399;-86
2021/03/15 06:51:15;;;;;;;7.07;3.45;;;;;;;;;;5087248;28;20893;-89
2021/03/15 06:53:41;;;;;;;7.13;4.53;;;;;;;;;;5067479;28;20394;-86
2021/03/15 06:56:14;;;;;;;6.50;3.38;;;;;;;;;;5079198;28;20405;-86
2021/03/15 06:58:47;;;;;;;9.65;4.47;;;;;;;;;;5075525;28;20406;-86
2021/03/15 07:01:14;;;;;;;8.68;4.32;;;;;;;;;;5099534;28;20386;-87
2021/03/15 07:03:40;;;;;;;9.90;4.40;;;;;;;;;;5095724;28;20893;-87
2021/03/15 07:06:06;;;;;;;10.13;5.90;;;;;;;;;;5078825;28;20461;-87
2021/03/15 07:08:32;;;;;;;9.88;4.97;;;;;;;;;;5074615;28;20932;-86
2021/03/15 07:10:58;;;;;;;9.40;5.22;;;;;;;;;;5082036;28;20413;-87
2021/03/15 07:13:24;;;;;;;10.38;4.07;;;;;;;;;;5067342;28;20386;-87
2021/03/15 07:15:51;;;;;;;3.65;3.08;;;;;;;;;;5073687;28;20739;-86
2021/03/15 07:18:18;;;;;;;5.38;3.20;;;;;;;;;;5076895;28;20401;-87
2021/03/15 07:20:44;;;;;;;3.88;2.20;;;;;;;;;;5077851;28;20749;-86
2021/03/15 07:23:10;;;;;;;2.78;1.88;;;;;;;;;;5098293;27;20417;-87
2021/03/15 07:25:36;;;;;;;3.58;1.80;;;;;;;;;;5082241;28;20466;-86
2021/03/15 07:28:02;;;;;;;5.07;2.35;;;;;;;;;;5094495;28;20983;-86
2021/03/15 07:30:36;;;;;;;4.20;2.60;;;;;;;;;;5072766;28;20396;-86
2021/03/15 07:33:05;;;;;;;3.20;1.80;;;;;;;;;;5053449;28;20928;-89
2021/03/15 07:35:35;;;;;;;2.08;1.85;;;;;;;;;;5077055;28;20498;-86
2021/03/15 07:38:01;;;;;;;4.40;1.77;;;;;;;;;;5091784;28;20489;-86
2021/03/15 07:40:32;;;;;;;2.80;1.70;;;;;;;;;;5081380;28;20813;-87
2021/03/15 07:42:58;;;;;;;1.70;1.43;;;;;;;;;;5067622;28;20498;-86
2021/03/15 07:45:51;;;;;;;2.92;1.30;;;;;;;;;;5059574;28;20435;-86
2021/03/15 07:48:18;;;;;;;2.60;1.80;;;;;;;;;;5063351;28;20396;-86
2021/03/15 07:50:54;;;;;;;3.05;1.52;;;;;;;;;;5083877;28;20391;-86
2021/03/15 07:53:21;;;;;;;1.85;1.40;;;;;;;;;;5075341;28;20394;-86
2021/03/15 07:55:47;;;;;;;4.05;2.35;;;;;;;;;;5068594;28;20530;-86
2021/03/15 07:58:26;;;;;;;3.08;1.40;;;;;;;;;;5098049;28;20872;-86
2021/03/15 08:00:52;;;;;;;2.15;1.50;;;;;;;;;;5080391;28;20496;-86
2021/03/15 08:03:18;;;;;;;2.30;1.52;;;;;;;;;;5092131;28;20395;-86
2021/03/15 08:05:44;;;;;;;3.05;2.30;;;;;;;;;;5068787;28;20466;-86
2021/03/15 08:08:10;;;;;;;4.60;2.45;;;;;;;;;;5071234;28;20928;-86
2021/03/15 08:10:36;;;;;;;4.23;1.90;;;;;;;;;;5063521;28;20499;-86
2021/03/15 08:13:02;;;;;;;6.18;2.58;;;;;;;;;;5047836;28;20418;-86
2021/03/15 08:15:28;;;;;;;9.35;3.58;;;;;;;;;;5094982;28;20880;-86
2021/03/15 08:17:54;;;;;;;7.57;3.70;;;;;;;;;;5056439;28;20432;-89
2021/03/15 08:20:20;;;;;;;6.20;2.43;;;;;;;;;;5077810;28;20500;-87
2021/03/15 08:22:48;;;;;;;7.00;3.28;;;;;;;;;;5086779;28;20408;-86
2021/03/15 08:25:14;;;;;;;5.60;2.15;;;;;;;;;;5056751;28;20411;-86
2021/03/15 08:27:40;;;;;;;3.90;2.50;;;;;;;;;;5056971;28;20400;-86
2021/03/15 08:30:08;;;;;;;3.67;2.35;;;;;;;;;;5059348;28;20488;-86
2021/03/15 08:32:35;;;;;;;4.00;1.70;;;;;;;;;;5078261;28;20758;-86
2021/03/15 08:35:01;;;;;;;6.10;2.65;;;;;;;;;;5110200;27;20484;-86
2021/03/15 08:37:45;;;;;;;4.75;1.90;;;;;;;;;;5086856;28;20481;-86
2021/03/15 08:40:12;;;;;;;3.92;2.72;;;;;;;;;;5092174;28;20422;-86
2021/03/15 08:42:37;;;;;;;4.07;2.80;;;;;;;;;;5081361;28;20394;-86
2021/03/15 08:45:04;;;;;;;3.22;2.45;;;;;;;;;;5093399;28;20898;-86
2021/03/15 08:47:49;;;;;;;4.75;2.60;;;;;;;;;;5084424;28;20391;-86
2021/03/15 08:50:33;;;;;;;5.53;3.05;;;;;;;;;;5081233;28;20490;-86
2021/03/15 08:52:59;;;;;;;10.93;4.73;;;;;;;;;;5097964;27;20496;-86
2021/03/15 08:55:46;;;;;;;7.15;3.60;;;;;;;;;;5085530;28;20898;-86
2021/03/15 08:58:36;;;;;;;6.32;4.25;;;;;;;;;;5087675;28;20963;-87
2021/03/15 09:01:11;;;;;;;6.60;3.37;;;;;;;;;;5072363;28;20394;-86
2021/03/15 09:03:50;;;;;;;7.00;3.75;;;;;;;;;;5061635;28;20414;-86
2021/03/15 09:06:36;;;;;;;4.07;2.57;;;;;;;;;;5082846;28;20901;-86
2021/03/15 09:09:20;;;;;;;4.30;2.88;;;;;;;;;;5067386;28;20440;-85
2021/03/15 09:11:48;;;;;;;3.70;2.35;;;;;;;;;;5090549;28;20415;-86
2021/03/15 09:14:18;;;;;;;8.02;5.57;;;;;;;;;;5075428;28;20390;-86
2021/03/15 09:16:48;;;;;;;8.30;5.28;;;;;;;;;;5067735;28;20734;-85
2021/03/15 09:19:23;;;;;;;8.20;4.90;;;;;;;;;;5075500;28;20504;-86
2021/03/15 09:21:56;;;;;;;5.95;3.97;;;;;;;;;;5069287;28;20392;-85
2021/03/15 09:24:42;;;;;;;7.23;4.87;;;;;;;;;;5092361;28;20453;-86
2021/03/15 09:27:08;;;;;;;4.68;3.88;;;;;;;;;;5099741;28;20494;-85
2021/03/15 09:29:35;;;;;;;5.60;3.50;;;;;;;;;;5055796;28;20412;-86
2021/03/15 09:32:02;;;;;;;2.97;2.78;;;;;;;;;;5064590;28;20910;-86
2021/03/15 09:34:28;;;;;;;3.50;2.30;;;;;;;;;;5072557;28;20437;-86
2021/03/15 09:36:58;;;;;;;3.50;1.83;;;;;;;;;;5092898;28;20420;-86
2021/03/15 09:39:25;;;;;;;2.57;1.90;;;;;;;;;;5079671;28;20848;-86
2021/03/15 09:41:51;;;;;;;3.05;2.33;;;;;;;;;;5054554;28;20396;-85
2021/03/15 09:44:37;;;;;;;6.10;3.35;;;;;;;;;;5061006;28;20409;-86
2021/03/15 09:47:03;;;;;;;2.50;2.30;;;;;;;;;;5082653;28;20428;-86
2021/03/15 09:49:32;;;;;;;4.45;2.60;;;;;;;;;;5100595;28;20394;-86
2021/03/15 09:52:10;;;;;;;3.53;2.90;;;;;;;;;;5099599;28;20398;-86
2021/03/15 09:54:40;;;;;;;3.13;2.13;;;;;;;;;;5089687;28;20386;-85
2021/03/15 09:57:06;;;;;;;3.83;2.60;;;;;;;;;;5087080;28;20400;-86
2021/03/15 09:59:32;;;;;;;3.78;2.17;;;;;;;;;;5062223;28;20434;-86
2021/03/15 10:02:01;;;;;;;8.98;3.60;;;;;;;;;;5077950;28;20979;-86
2021/03/15 10:04:33;;;;;;;8.25;3.75;;;;;;;;;;5088700;28;20406;-86
2021/03/15 10:07:00;;;;;;;5.47;3.35;;;;;;;;;;5066308;28;20810;-86
2021/03/15 10:09:26;;;;;;;5.07;2.97;;;;;;;;;;5083840;28;21171;-85
2021/03/15 10:11:53;;;;;;;3.42;2.47;;;;;;;;;;5088826;28;20408;-86
2021/03/15 10:14:20;;;;;;;5.17;2.73;;;;;;;;;;5067748;28;20526;-86
2021/03/15 10:17:13;;;;;;;5.47;3.20;;;;;;;;;;5089209;28;20398;-86
2021/03/15 10:19:39;;;;;;;5.85;2.80;;;;;;;;;;5084980;28;20409;-86
2021/03/15 10:22:09;;;;;;;6.40;3.17;;;;;;;;;;5068964;28;20904;-85
2021/03/15 10:24:36;;;;;;;4.07;2.17;;;;;;;;;;5074343;28;20421;-86
2021/03/15 10:27:04;;;;;;;2.60;1.50;;;;;;;;;;5052727;28;20402;-86
2021/03/15 10:29:30;;;;;;;4.10;2.92;;;;;;;;;;5077631;28;20400;-86
2021/03/15 10:32:00;;;;;;;2.17;2.08;;;;;;;;;;5070071;28;20493;-86
2021/03/15 10:34:29;;;;;;;2.60;2.30;;;;;;;;;;5074069;28;20796;-85
2021/03/15 10:36:55;;;;;;;5.63;3.28;;;;;;;;;;5056425;28;20396;-86
2021/03/15 10:39:21;;;;;;;3.15;2.17;;;;;;;;;;5074913;28;20447;-86
2021/03/15 10:41:47;;;;;;;4.07;2.90;;;;;;;;;;5084491;28;20398;-86
2021/03/15 10:44:13;;;;;;;4.90;3.28;;;;;;;;;;5084187;28;20408;-86
2021/03/15 10:46:46;;;;;;;3.55;2.10;;;;;;;;;;5100923;28;20418;-86
2021/03/15 10:49:19;;;;;;;2.03;1.92;;;;;;;;;;5061951;28;20488;-86
2021/03/15 10:51:52;;;;;;;2.97;2.60;;;;;;;;;;5063270;28;20402;-86
2021/03/15 10:54:27;;;;;;;2.97;2.35;;;;;;;;;;5082163;28;20904;-86
2021/03/15 10:57:12;;;;;;;3.65;2.53;;;;;;;;;;5099571;28;20401;-87
2021/03/15 10:59:38;;;;;;;2.45;2.25;;;;;;;;;;5074835;28;20392;-87
2021/03/15 11:02:04;;;;;;;2.38;2.17;;;;;;;;;;5058328;28;20410;-86
2021/03/15 11:04:36;;;;;;;2.40;2.20;;;;;;;;;;5054409;28;20418;-86
2021/03/15 11:07:23;;;;;;;4.28;2.88;;;;;;;;;;5069782;28;20406;-86
2021/03/15 11:10:08;;;;;;;2.55;2.35;;;;;;;;;;5065208;28;21080;-86
2021/03/15 11:12:34;;;;;;;3.20;2.90;;;;;;;;;;5064143;28;20896;-86
2021/03/15 11:15:10;;;;;;;3.10;2.78;;;;;;;;;;5093613;28;20432;-86
2021/03/15 11:17:36;;;;;;;3.20;2.20;;;;;;;;;;5069289;28;20908;-86
2021/03/15 11:20:04;;;;;;;1.63;1.30;;;;;;;;;;5069699;28;20453;-86
2021/03/15 11:22:30;;;;;;;1.07;1.00;;;;;;;;;;5074072;28;20394;-86
2021/03/15 11:25:06;;;;;;;1.45;1.35;;;;;;;;;;5056821;28;20418;-86
2021/03/15 11:27:32;;;;;;;5.60;5.10;;;;;;;;;;5062901;28;20423;-86
2021/03/15 11:30:00;;;;;;;1.80;1.00;;;;;;;;;;5085791;28;20446;-86
2021/03/15 11:32:26;;;;;;;0.70;0.50;;;;;;;;;;5076259;28;20483;-86
2021/03/15 11:34:52;;;;;;;1.20;1.20;;;;;;;;;;5053397;28;20406;-87
2021/03/15 11:37:25;;;;;;;0.52;0.52;;;;;;;;;;5085425;28;20395;-85
2021/03/15 11:39:51;;;;;;;0.60;0.60;;;;;;;;;;5086445;28;20422;-85
2021/03/15 11:42:32;;;;;;;0.50;0.50;;;;;;;;;;5078811;28;20390;-84
2021/03/15 11:44:59;;;;;;;0.50;0.50;;;;;;;;;;5089277;28;20452;-83
2021/03/15 11:47:25;;;;;;;0.40;0.40;;;;;;;;;;5067617;28;21042;-83
2021/03/15 11:49:51;;;;;;;0.60;0.40;;;;;;;;;;5063217;28;20397;-83
2021/03/15 11:52:26;;;;;;;0.70;0.70;;;;;;;;;;5057892;28;20434;-83
2021/03/15 11:54:52;;;;;;;0.52;0.52;;;;;;;;;;5083082;28;20421;-83
2021/03/15 11:57:18;;;;;;;1.20;1.10;;;;;;;;;;5076371;28;20408;-82
2021/03/15 11:59:44;;;;;;;1.02;0.85;;;;;;;;;;5081655;28;20427;-82
2021/03/15 12:02:10;;;;;;;2.90;2.70;;;;;;;;;;5090968;28;20486;-83
2021/03/15 12:04:40;;;;;;;3.97;2.90;;;;;;;;;;5067536;28;20484;-82
2021/03/15 12:07:06;;;;;;;4.80;4.05;;;;;;;;;;5081001;28;20405;-83
2021/03/15 12:09:32;;;;;;;3.72;3.25;;;;;;;;;;5081179;28;20441;-82
2021/03/15 12:11:58;;;;;;;2.33;2.13;;;;;;;;;;5083020;28;20759;-82
2021/03/15 12:14:24;;;;;;;2.42;2.22;;;;;;;;;;5089712;28;20461;-83
2021/03/15 12:16:50;;;;;;;5.03;3.28;;;;;;;;;;5086965;28;20878;-82
2021/03/15 12:19:16;;;;;;;1.25;1.15;;;;;;;;;;5079047;28;20408;-83
2021/03/15 12:21:45;;;;;;;0.73;0.73;;;;;;;;;;5078392;28;20449;-83
2021/03/15 12:24:11;;;;;;;1.27;1.27;;;;;;;;;;5095843;28;20793;-85
2021/03/15 12:26:37;;;;;;;0.60;0.60;;;;;;;;;;5092602;28;20473;-85
2021/03/15 12:29:03;;;;;;;1.20;0.65;;;;;;;;;;5085533;28;20402;-85
2021/03/15 12:31:29;;;;;;;0.55;0.55;;;;;;;;;;5067708;28;20415;-85
2021/03/15 12:33:55;;;;;;;0.70;0.70;;;;;;;;;;5085312;28;20442;-83
2021/03/15 12:36:21;;;;;;;1.52;0.90;;;;;;;;;;5057008;28;20403;-84
2021/03/15 12:38:47;;;;;;;0.90;0.90;;;;;;;;;;5087217;28;20426;-85
2021/03/15 12:41:13;;;;;;;1.17;1.17;;;;;;;;;;5089195;28;20460;-84
2021/03/15 12:43:39;;;;;;;1.38;1.38;;;;;;;;;;5098407;28;20390;-84
2021/03/15 12:46:04;;;;;;;1.83;1.73;;;;;;;;;;5102965;28;20561;-84
2021/03/15 12:48:31;;;;;;;0.52;0.52;;;;;;;;;;5078656;28;20392;-85
2021/03/15 12:50:57;;;;;;;0.40;0.40;;;;;;;;;;5065512;28;20412;-84
2021/03/15 12:53:23;;;;;;;0.57;0.57;;;;;;;;;;5067827;28;20900;-84
2021/03/15 12:55:48;;;;;;;0.35;0.30;;;;;;;;;;5067427;28;20409;-83
2021/03/15 12:58:16;;;;;;;0.77;0.70;;;;;;;;;;5068844;28;20393;-83
2021/03/15 13:00:42;;;;;;;0.80;0.80;;;;;;;;;;5080175;28;20465;-84
2021/03/15 13:03:07;;;;;;;0.40;0.40;;;;;;;;;;5073686;28;20787;-84
2021/03/15 13:05:33;;;;;;;0.50;0.30;;;;;;;;;;5105096;27;20869;-84
2021/03/15 13:07:59;;;;;;;0.35;0.35;;;;;;;;;;5089037;28;20504;-84
2021/03/15 13:10:25;;;;;;;0.98;0.60;;;;;;;;;;5072287;28;20454;-85
2021/03/15 13:12:51;;;;;;;0.50;0.50;;;;;;;;;;5069465;28;20499;-86
2021/03/15 13:15:17;;;;;;;1.10;0.53;;;;;;;;;;5081703;28;20410;-84
2021/03/15 13:17:44;;;;;;;1.15;0.98;;;;;;;;;;5101365;27;20422;-86
2021/03/15 13:20:10;;;;;;;0.70;0.70;;;;;;;;;;5115756;27;20390;-84
2021/03/15 13:22:40;;;;;;;1.75;1.40;;;;;;;;;;5100210;27;20404;-85
2021/03/15 13:25:06;;;;;;;1.13;0.90;;;;;;;;;;5049364;28;20414;-86
2021/03/15 13:27:32;;;;;;;1.95;0.90;;;;;;;;;;5075199;28;20403;-84
2021/03/15 13:29:58;;;;;;;1.80;1.20;;;;;;;;;;5087792;28;20402;-84
2021/03/15 13:32:34;;;;;;;1.47;1.37;;;;;;;;;;5102128;28;20436;-86
2021/03/15 13:35:00;;;;;;;0.97;0.90;;;;;;;;;;5082668;28;20402;-87
2021/03/15 13:37:26;;;;;;;0.50;0.50;;;;;;;;;;5089307;28;20489;-85
2021/03/15 13:39:52;;;;;;;0.77;0.68;;;;;;;;;;5084524;28;20409;-85
2021/03/15 13:42:18;;;;;;;2.50;0.63;;;;;;;;;;5070198;28;20442;-84
2021/03/15 13:44:43;;;;;;;2.45;1.42;;;;;;;;;;5070396;28;20411;-84
2021/03/15 13:47:12;;;;;;;0.80;0.60;;;;;;;;;;5084175;28;20402;-84
2021/03/15 13:49:39;;;;;;;1.25;0.75;;;;;;;;;;5064592;28;20388;-84
2021/03/15 13:52:05;;;;;;;1.03;0.70;;;;;;;;;;5067695;28;20442;-85
2021/03/15 13:54:31;;;;;;;3.97;0.90;;;;;;;;;;5081739;28;20801;-89
2021/03/15 13:56:57;;;;;;;1.95;0.55;;;;;;;;;;5061287;28;20401;-84
2021/03/15 13:59:23;;;;;;;1.77;0.98;;;;;;;;;;5071206;28;20459;-86
2021/03/15 14:01:49;;;;;;;2.20;0.82;;;;;;;;;;5066253;28;20912;-86
2021/03/15 14:04:15;;;;;;;1.65;0.75;;;;;;;;;;5054963;28;20525;-86
2021/03/15 14:06:41;;;;;;;0.68;0.68;;;;;;;;;;5072318;28;20964;-86
2021/03/15 14:09:07;;;;;;;0.70;0.70;;;;;;;;;;5071216;28;20760;-86
2021/03/15 14:11:33;;;;;;;0.93;0.52;;;;;;;;;;5084233;28;20405;-87
2021/03/15 14:14:05;;;;;;;1.52;0.40;;;;;;;;;;5057073;28;20405;-86
2021/03/15 14:16:31;;;;;;;1.00;0.50;;;;;;;;;;5081845;28;20407;-86
2021/03/15 14:19:00;;;;;;;1.30;0.40;;;;;;;;;;5067099;28;20425;-86
2021/03/15 14:21:26;;;;;;;0.90;0.60;;;;;;;;;;5073822;28;20481;-86
2021/03/15 14:23:52;;;;;;;1.10;0.60;;;;;;;;;;5074436;28;20409;-86
2021/03/15 14:26:18;;;;;;;0.60;0.57;;;;;;;;;;5074311;28;20410;-86
2021/03/15 14:28:44;;;;;;;1.00;0.60;;;;;;;;;;5054542;28;20494;-86
2021/03/15 14:31:11;;;;;;;0.60;0.60;;;;;;;;;;5059394;28;20872;-86
2021/03/15 14:33:37;;;;;;;1.40;0.60;;;;;;;;;;5066294;28;20776;-86
2021/03/15 14:36:03;;;;;;;2.20;0.60;;;;;;;;;;5066303;28;20407;-86
2021/03/15 14:38:29;;;;;;;0.60;0.30;;;;;;;;;;5085572;28;20511;-86
2021/03/15 14:40:55;;;;;;;0.82;0.30;;;;;;;;;;5080914;28;20495;-86
2021/03/15 14:43:23;;;;;;;0.60;0.40;;;;;;;;;;5080270;28;20473;-86
2021/03/15 14:45:53;;;;;;;0.50;0.43;;;;;;;;;;5073459;28;20453;-86
2021/03/15 14:48:19;;;;;;;2.40;1.70;;;;;;;;;;5066887;28;20394;-87